sensor_id;sensor_type;location;lat;lon;timestamp;pressure;altitude;pressure_sealevel;temperature;humidity
29383;BME280;16365;51.598;7.668;2023-01-25T00:01:06;103039.41;;;7.93;47.10
29383;BME280;16365;51.598;7.668;2023-01-25T00:03:33;103044.66;;;7.95;46.94
29383;BME280;16365;51.598;7.668;2023-01-25T00:05:59;103039.97;;;7.95;47.42
29383;BME280;16365;51.598;7.668;2023-01-25T00:08:26;103033.34;;;7.96;47.50
29383;BME280;16365;51.598;7.668;2023-01-25T00:10:52;103033.63;;;7.95;47.07
29383;BME280;16365;51.598;7.668;2023-01-25T00:13:19;103037.22;;;7.95;46.97
29383;BME280;16365;51.598;7.668;2023-01-25T00:15:45;103037.22;;;7.95;47.47
29383;BME280;16365;51.598;7.668;2023-01-25T00:18:11;103023.91;;;7.92;47.13
29383;BME280;16365;51.598;7.668;2023-01-25T00:20:38;103022.25;;;7.91;46.68
29383;BME280;16365;51.598;7.668;2023-01-25T00:23:05;103020.31;;;7.92;46.81
29383;BME280;16365;51.598;7.668;2023-01-25T00:25:31;103018.38;;;7.92;46.97
29383;BME280;16365;51.598;7.668;2023-01-25T00:27:59;103012.84;;;7.92;46.92
29383;BME280;16365;51.598;7.668;2023-01-25T00:30:26;103015.88;;;7.91;47.17
29383;BME280;16365;51.598;7.668;2023-01-25T00:32:53;103018.66;;;7.91;47.33
29383;BME280;16365;51.598;7.668;2023-01-25T00:35:23;103009.53;;;7.90;46.65
29383;BME280;16365;51.598;7.668;2023-01-25T00:37:54;103001.50;;;7.89;47.31
29383;BME280;16365;51.598;7.668;2023-01-25T00:40:21;102999.81;;;7.88;47.54
29383;BME280;16365;51.598;7.668;2023-01-25T00:42:47;103012.56;;;7.89;47.14
29383;BME280;16365;51.598;7.668;2023-01-25T00:45:14;103001.50;;;7.89;47.19
29383;BME280;16365;51.598;7.668;2023-01-25T00:47:40;102993.44;;;7.87;47.54
29383;BME280;16365;51.598;7.668;2023-01-25T00:50:07;102989.03;;;7.86;47.12
29383;BME280;16365;51.598;7.668;2023-01-25T00:52:33;102989.84;;;7.87;47.11
29383;BME280;16365;51.598;7.668;2023-01-25T00:55:00;102981.56;;;7.87;46.90
29383;BME280;16365;51.598;7.668;2023-01-25T00:57:27;102981.56;;;7.87;47.61
29383;BME280;16365;51.598;7.668;2023-01-25T00:59:54;102979.41;;;7.89;46.83
29383;BME280;16365;51.598;7.668;2023-01-25T01:02:20;102982.16;;;7.89;46.79
29383;BME280;16365;51.598;7.668;2023-01-25T01:04:47;102977.47;;;7.89;47.67
29383;BME280;16365;51.598;7.668;2023-01-25T01:07:13;102982.75;;;7.91;47.00
29383;BME280;16365;51.598;7.668;2023-01-25T01:09:40;102969.75;;;7.91;47.21
29383;BME280;16365;51.598;7.668;2023-01-25T01:12:06;102979.97;;;7.91;47.23
29383;BME280;16365;51.598;7.668;2023-01-25T01:14:33;102976.38;;;7.90;47.05
29383;BME280;16365;51.598;7.668;2023-01-25T01:16:59;102968.34;;;7.89;47.62
29383;BME280;16365;51.598;7.668;2023-01-25T01:19:26;102958.38;;;7.88;47.15
29383;BME280;16365;51.598;7.668;2023-01-25T01:21:52;102979.91;;;7.86;47.06
29383;BME280;16365;51.598;7.668;2023-01-25T01:24:18;102983.50;;;7.86;47.29
29383;BME280;16365;51.598;7.668;2023-01-25T01:26:45;102983.75;;;7.85;47.36
29383;BME280;16365;51.598;7.668;2023-01-25T01:29:11;102991.22;;;7.84;47.23
29383;BME280;16365;51.598;7.668;2023-01-25T01:31:39;102979.84;;;7.81;46.77
29383;BME280;16365;51.598;7.668;2023-01-25T01:34:06;102985.84;;;7.78;47.27
29383;BME280;16365;51.598;7.668;2023-01-25T01:36:32;102983.34;;;7.76;47.18
29383;BME280;16365;51.598;7.668;2023-01-25T01:38:59;102983.34;;;7.76;47.66
29383;BME280;16365;51.598;7.668;2023-01-25T01:41:25;102986.94;;;7.77;47.65
29383;BME280;16365;51.598;7.668;2023-01-25T01:43:52;102988.03;;;7.76;47.53
29383;BME280;16365;51.598;7.668;2023-01-25T01:48:51;102992.47;;;7.77;47.52
29383;BME280;16365;51.598;7.668;2023-01-25T01:51:31;102980.59;;;7.76;47.49
29383;BME280;16365;51.598;7.668;2023-01-25T01:54:08;102978.41;;;7.78;47.67
29383;BME280;16365;51.598;7.668;2023-01-25T01:56:38;102975.63;;;7.78;47.29
29383;BME280;16365;51.598;7.668;2023-01-25T01:59:05;102976.50;;;7.79;47.71
29383;BME280;16365;51.598;7.668;2023-01-25T02:01:33;102978.41;;;7.78;46.84
29383;BME280;16365;51.598;7.668;2023-01-25T02:04:01;102978.41;;;7.78;47.33
29383;BME280;16365;51.598;7.668;2023-01-25T02:06:38;102978.66;;;7.77;47.38
29383;BME280;16365;51.598;7.668;2023-01-25T02:09:05;102981.69;;;7.75;47.10
29383;BME280;16365;51.598;7.668;2023-01-25T02:11:32;102976.66;;;7.72;47.10
29383;BME280;16365;51.598;7.668;2023-01-25T02:13:59;102978.84;;;7.70;46.80
29383;BME280;16365;51.598;7.668;2023-01-25T02:16:26;102967.81;;;7.70;47.40
29383;BME280;16365;51.598;7.668;2023-01-25T02:18:54;102976.09;;;7.70;47.48
29383;BME280;16365;51.598;7.668;2023-01-25T02:21:22;102978.84;;;7.70;47.60
29383;BME280;16365;51.598;7.668;2023-01-25T02:23:53;102972.22;;;7.71;47.55
29383;BME280;16365;51.598;7.668;2023-01-25T02:26:22;102976.91;;;7.70;47.03
29383;BME280;16365;51.598;7.668;2023-01-25T02:28:53;102971.97;;;7.72;47.51
29383;BME280;16365;51.598;7.668;2023-01-25T02:31:21;102977.50;;;7.72;47.79
29383;BME280;16365;51.598;7.668;2023-01-25T02:33:49;102979.41;;;7.72;47.71
29383;BME280;16365;51.598;7.668;2023-01-25T02:36:17;102984.38;;;7.70;47.53
29383;BME280;16365;51.598;7.668;2023-01-25T02:38:46;102984.88;;;7.67;47.42
29383;BME280;16365;51.598;7.668;2023-01-25T02:41:20;102975.75;;;7.66;47.67
29383;BME280;16365;51.598;7.668;2023-01-25T02:43:48;102980.94;;;7.63;47.53
29383;BME280;16365;51.598;7.668;2023-01-25T02:46:17;102978.44;;;7.61;47.34
29383;BME280;16365;51.598;7.668;2023-01-25T02:48:46;102978.09;;;7.58;47.13
29383;BME280;16365;51.598;7.668;2023-01-25T02:51:13;102974.16;;;7.54;47.13
29383;BME280;16365;51.598;7.668;2023-01-25T02:53:39;102973.59;;;7.52;46.78
29383;BME280;16365;51.598;7.668;2023-01-25T02:56:07;102971.59;;;7.47;47.25
29383;BME280;16365;51.598;7.668;2023-01-25T02:58:34;102970.41;;;7.43;47.09
29383;BME280;16365;51.598;7.668;2023-01-25T03:01:00;102965.41;;;7.40;47.14
29383;BME280;16365;51.598;7.668;2023-01-25T03:03:27;102964.53;;;7.39;47.41
29383;BME280;16365;51.598;7.668;2023-01-25T03:05:53;102966.47;;;7.39;47.15
29383;BME280;16365;51.598;7.668;2023-01-25T03:08:20;102965.91;;;7.37;47.41
29383;BME280;16365;51.598;7.668;2023-01-25T03:10:46;102963.41;;;7.35;47.31
29383;BME280;16365;51.598;7.668;2023-01-25T03:13:12;102956.78;;;7.36;47.42
29383;BME280;16365;51.598;7.668;2023-01-25T03:15:40;102952.38;;;7.35;47.25
29383;BME280;16365;51.598;7.668;2023-01-25T03:18:06;102950.09;;;7.32;47.20
29383;BME280;16365;51.598;7.668;2023-01-25T03:20:33;102952.03;;;7.32;47.31
29383;BME280;16365;51.598;7.668;2023-01-25T03:22:59;102953.34;;;7.29;47.68
29383;BME280;16365;51.598;7.668;2023-01-25T03:25:26;102952.78;;;7.27;47.78
29383;BME280;16365;51.598;7.668;2023-01-25T03:27:52;102948.34;;;7.26;47.81
29383;BME280;16365;51.598;7.668;2023-01-25T03:30:19;102951.09;;;7.26;47.75
29383;BME280;16365;51.598;7.668;2023-01-25T03:32:45;102939.81;;;7.28;47.38
29383;BME280;16365;51.598;7.668;2023-01-25T03:35:11;102938.50;;;7.30;47.61
29383;BME280;16365;51.598;7.668;2023-01-25T03:37:38;102929.94;;;7.32;47.54
29383;BME280;16365;51.598;7.668;2023-01-25T03:40:04;102916.97;;;7.32;47.79
29383;BME280;16365;51.598;7.668;2023-01-25T03:42:31;102918.38;;;7.35;48.15
29383;BME280;16365;51.598;7.668;2023-01-25T03:44:57;102911.81;;;7.36;47.80
29383;BME280;16365;51.598;7.668;2023-01-25T03:47:23;102898.84;;;7.36;47.53
29383;BME280;16365;51.598;7.668;2023-01-25T03:49:50;102897.75;;;7.37;47.81
29383;BME280;16365;51.598;7.668;2023-01-25T03:52:16;102888.38;;;7.38;47.89
29383;BME280;16365;51.598;7.668;2023-01-25T03:54:43;102893.88;;;7.38;48.02
29383;BME280;16365;51.598;7.668;2023-01-25T03:57:09;102893.06;;;7.38;47.48
29383;BME280;16365;51.598;7.668;2023-01-25T03:59:36;102893.31;;;7.36;47.48
29383;BME280;16365;51.598;7.668;2023-01-25T04:02:02;102886.38;;;7.34;47.96
29383;BME280;16365;51.598;7.668;2023-01-25T04:04:29;102883.88;;;7.32;47.85
29383;BME280;16365;51.598;7.668;2023-01-25T04:06:56;102871.66;;;7.28;47.60
29383;BME280;16365;51.598;7.668;2023-01-25T04:09:22;102870.25;;;7.26;47.96
29383;BME280;16365;51.598;7.668;2023-01-25T04:11:49;102877.94;;;7.24;47.55
29383;BME280;16365;51.598;7.668;2023-01-25T04:14:16;102880.97;;;7.22;47.76
29383;BME280;16365;51.598;7.668;2023-01-25T04:16:47;102875.72;;;7.20;47.88
29383;BME280;16365;51.598;7.668;2023-01-25T04:19:14;102866.34;;;7.21;47.89
29383;BME280;16365;51.598;7.668;2023-01-25T04:21:40;102869.09;;;7.21;47.83
29383;BME280;16365;51.598;7.668;2023-01-25T04:24:07;102870.50;;;7.24;47.70
29383;BME280;16365;51.598;7.668;2023-01-25T04:26:33;102869.41;;;7.25;47.98
29383;BME280;16365;51.598;7.668;2023-01-25T04:28:59;102864.97;;;7.24;47.64
29383;BME280;16365;51.598;7.668;2023-01-25T04:31:26;102858.38;;;7.25;47.74
29383;BME280;16365;51.598;7.668;2023-01-25T04:33:53;102846.25;;;7.26;47.99
29383;BME280;16365;51.598;7.668;2023-01-25T04:36:20;102843.25;;;7.28;48.08
29383;BME280;16365;51.598;7.668;2023-01-25T04:38:46;102846.84;;;7.28;47.68
29383;BME280;16365;51.598;7.668;2023-01-25T04:41:12;102841.06;;;7.30;48.11
29383;BME280;16365;51.598;7.668;2023-01-25T04:43:39;102835.78;;;7.28;47.92
29383;BME280;16365;51.598;7.668;2023-01-25T04:46:05;102843.81;;;7.30;47.88
29383;BME280;16365;51.598;7.668;2023-01-25T04:48:31;102848.28;;;7.31;47.87
29383;BME280;16365;51.598;7.668;2023-01-25T04:50:58;102841.06;;;7.30;48.09
29383;BME280;16365;51.598;7.668;2023-01-25T04:53:24;102841.06;;;7.30;47.69
29383;BME280;16365;51.598;7.668;2023-01-25T04:55:50;102832.22;;;7.28;47.71
29383;BME280;16365;51.598;7.668;2023-01-25T04:58:17;102831.38;;;7.27;47.71
29383;BME280;16365;51.598;7.668;2023-01-25T05:00:44;102834.13;;;7.27;47.75
29383;BME280;16365;51.598;7.668;2023-01-25T05:03:11;102832.47;;;7.26;47.92
29383;BME280;16365;51.598;7.668;2023-01-25T05:05:37;102835.22;;;7.26;48.04
29383;BME280;16365;51.598;7.668;2023-01-25T05:08:03;102843.25;;;7.28;47.79
29383;BME280;16365;51.598;7.668;2023-01-25T05:10:30;102842.41;;;7.27;48.11
29383;BME280;16365;51.598;7.668;2023-01-25T05:12:56;102845.75;;;7.29;48.09
29383;BME280;16365;51.598;7.668;2023-01-25T05:15:23;102841.56;;;7.27;48.18
29383;BME280;16365;51.598;7.668;2023-01-25T05:17:49;102847.09;;;7.27;48.05
29383;BME280;16365;51.598;7.668;2023-01-25T05:20:16;102836.28;;;7.25;48.48
29383;BME280;16365;51.598;7.668;2023-01-25T05:22:42;102837.38;;;7.24;48.00
29383;BME280;16365;51.598;7.668;2023-01-25T05:25:09;102843.50;;;7.26;47.79
29383;BME280;16365;51.598;7.668;2023-01-25T05:27:55;102842.69;;;7.26;47.75
29383;BME280;16365;51.598;7.668;2023-01-25T05:30:23;102836.28;;;7.25;47.80
29383;BME280;16365;51.598;7.668;2023-01-25T05:32:49;102843.50;;;7.26;47.97
29383;BME280;16365;51.598;7.668;2023-01-25T05:35:16;102845.16;;;7.27;47.98
29383;BME280;16365;51.598;7.668;2023-01-25T05:37:42;102845.16;;;7.27;48.06
29383;BME280;16365;51.598;7.668;2023-01-25T05:40:09;102850.94;;;7.26;48.02
29383;BME280;16365;51.598;7.668;2023-01-25T05:42:36;102837.66;;;7.22;48.08
29383;BME280;16365;51.598;7.668;2023-01-25T05:45:02;102836.81;;;7.22;47.97
29383;BME280;16365;51.598;7.668;2023-01-25T05:47:28;102837.91;;;7.21;47.91
29383;BME280;16365;51.598;7.668;2023-01-25T05:49:55;102838.16;;;7.19;47.87
29383;BME280;16365;51.598;7.668;2023-01-25T05:52:21;102840.91;;;7.19;48.10
29383;BME280;16365;51.598;7.668;2023-01-25T05:54:48;102843.66;;;7.19;48.41
29383;BME280;16365;51.598;7.668;2023-01-25T05:57:15;102849.19;;;7.19;48.38
29383;BME280;16365;51.598;7.668;2023-01-25T05:59:42;102840.91;;;7.19;48.03
29383;BME280;16365;51.598;7.668;2023-01-25T06:02:08;102832.63;;;7.19;48.11
29383;BME280;16365;51.598;7.668;2023-01-25T06:04:36;102835.38;;;7.19;48.26
29383;BME280;16365;51.598;7.668;2023-01-25T06:07:02;102829.31;;;7.17;47.91
29383;BME280;16365;51.598;7.668;2023-01-25T06:09:29;102831.22;;;7.17;48.08
29383;BME280;16365;51.598;7.668;2023-01-25T06:11:55;102826.81;;;7.16;48.14
29383;BME280;16365;51.598;7.668;2023-01-25T06:14:21;102829.56;;;7.16;47.83
29383;BME280;16365;51.598;7.668;2023-01-25T06:16:50;102828.69;;;7.15;48.33
29383;BME280;16365;51.598;7.668;2023-01-25T06:19:16;102833.38;;;7.15;48.26
29383;BME280;16365;51.598;7.668;2023-01-25T06:21:42;102821.28;;;7.16;48.20
29383;BME280;16365;51.598;7.668;2023-01-25T06:24:09;102821.03;;;7.17;48.35
29383;BME280;16365;51.598;7.668;2023-01-25T06:26:35;102831.78;;;7.19;48.58
29383;BME280;16365;51.598;7.668;2023-01-25T06:29:03;102827.94;;;7.20;48.06
29383;BME280;16365;51.598;7.668;2023-01-25T06:31:30;102819.44;;;7.21;48.23
29383;BME280;16365;51.598;7.668;2023-01-25T06:33:57;102833.78;;;7.24;48.25
29383;BME280;16365;51.598;7.668;2023-01-25T06:36:26;102832.97;;;7.23;48.35
29383;BME280;16365;51.598;7.668;2023-01-25T06:38:52;102836.56;;;7.24;48.32
29383;BME280;16365;51.598;7.668;2023-01-25T06:41:19;102832.13;;;7.22;48.20
29383;BME280;16365;51.598;7.668;2023-01-25T06:43:45;102835.16;;;7.21;48.28
29383;BME280;16365;51.598;7.668;2023-01-25T06:46:12;102830.69;;;7.20;48.24
29383;BME280;16365;51.598;7.668;2023-01-25T06:48:39;102832.63;;;7.19;48.54
29383;BME280;16365;51.598;7.668;2023-01-25T06:51:08;102833.47;;;7.20;48.29
29383;BME280;16365;51.598;7.668;2023-01-25T06:53:36;102837.09;;;7.20;48.24
29383;BME280;16365;51.598;7.668;2023-01-25T06:56:08;102837.91;;;7.21;48.33
29383;BME280;16365;51.598;7.668;2023-01-25T06:58:37;102838.47;;;7.23;48.50
29383;BME280;16365;51.598;7.668;2023-01-25T07:01:06;102839.31;;;7.24;48.35
29383;BME280;16365;51.598;7.668;2023-01-25T07:03:34;102831.03;;;7.24;48.23
29383;BME280;16365;51.598;7.668;2023-01-25T07:06:02;102831.03;;;7.24;48.27
29383;BME280;16365;51.598;7.668;2023-01-25T07:08:28;102840.66;;;7.21;48.00
29383;BME280;16365;51.598;7.668;2023-01-25T07:10:55;102832.41;;;7.21;48.04
29383;BME280;16365;51.598;7.668;2023-01-25T07:13:23;102827.72;;;7.21;48.65
29383;BME280;16365;51.598;7.668;2023-01-25T07:15:57;102829.38;;;7.22;48.05
29383;BME280;16365;51.598;7.668;2023-01-25T07:18:25;102831.03;;;7.24;48.45
29383;BME280;16365;51.598;7.668;2023-01-25T07:20:53;102825.25;;;7.25;48.33
29383;BME280;16365;51.598;7.668;2023-01-25T07:23:19;102826.94;;;7.26;48.37
29383;BME280;16365;51.598;7.668;2023-01-25T07:25:46;102828.03;;;7.25;47.96
29383;BME280;16365;51.598;7.668;2023-01-25T07:28:13;102833.53;;;7.25;48.22
29383;BME280;16365;51.598;7.668;2023-01-25T07:30:40;102818.06;;;7.24;48.07
29383;BME280;16365;51.598;7.668;2023-01-25T07:33:07;102819.75;;;7.25;48.06
29383;BME280;16365;51.598;7.668;2023-01-25T07:35:34;102819.75;;;7.25;48.28
29383;BME280;16365;51.598;7.668;2023-01-25T07:38:00;102815.91;;;7.26;48.12
29383;BME280;16365;51.598;7.668;2023-01-25T07:40:27;102820.59;;;7.26;48.57
29383;BME280;16365;51.598;7.668;2023-01-25T07:42:53;102811.47;;;7.25;48.55
29383;BME280;16365;51.598;7.668;2023-01-25T07:45:19;102814.00;;;7.27;48.27
29383;BME280;16365;51.598;7.668;2023-01-25T07:47:46;102808.22;;;7.28;48.43
29383;BME280;16365;51.598;7.668;2023-01-25T07:50:13;102810.13;;;7.28;48.32
29383;BME280;16365;51.598;7.668;2023-01-25T07:52:39;102801.84;;;7.28;48.27
29383;BME280;16365;51.598;7.668;2023-01-25T07:55:06;102807.38;;;7.28;48.35
29383;BME280;16365;51.598;7.668;2023-01-25T07:57:33;102805.94;;;7.25;48.22
29383;BME280;16365;51.598;7.668;2023-01-25T08:00:00;102814.47;;;7.24;48.12
29383;BME280;16365;51.598;7.668;2023-01-25T08:02:26;102803.72;;;7.22;48.83
29383;BME280;16365;51.598;7.668;2023-01-25T08:04:53;102807.31;;;7.22;48.22
29383;BME280;16365;51.598;7.668;2023-01-25T08:07:20;102801.78;;;7.22;48.50
29383;BME280;16365;51.598;7.668;2023-01-25T08:09:48;102802.88;;;7.21;48.03
29383;BME280;16365;51.598;7.668;2023-01-25T08:12:16;102803.72;;;7.22;48.46
29383;BME280;16365;51.598;7.668;2023-01-25T08:14:43;102802.63;;;7.23;48.25
29383;BME280;16365;51.598;7.668;2023-01-25T08:17:10;102806.22;;;7.24;48.36
29383;BME280;16365;51.598;7.668;2023-01-25T08:19:36;102806.22;;;7.24;48.23
29383;BME280;16365;51.598;7.668;2023-01-25T08:22:02;102802.63;;;7.23;48.80
29383;BME280;16365;51.598;7.668;2023-01-25T08:24:29;102807.31;;;7.22;48.46
29383;BME280;16365;51.598;7.668;2023-01-25T08:26:56;102795.44;;;7.22;48.05
29383;BME280;16365;51.598;7.668;2023-01-25T08:29:23;102794.59;;;7.21;48.38
29383;BME280;16365;51.598;7.668;2023-01-25T08:31:50;102794.59;;;7.21;48.44
29383;BME280;16365;51.598;7.668;2023-01-25T08:34:16;102795.69;;;7.20;48.08
29383;BME280;16365;51.598;7.668;2023-01-25T08:36:42;102794.59;;;7.21;48.51
29383;BME280;16365;51.598;7.668;2023-01-25T08:39:09;102791.00;;;7.21;48.66
29383;BME280;16365;51.598;7.668;2023-01-25T08:41:36;102788.00;;;7.22;48.41
29383;BME280;16365;51.598;7.668;2023-01-25T08:44:04;102784.41;;;7.22;48.22
29383;BME280;16365;51.598;7.668;2023-01-25T08:46:32;102790.50;;;7.24;48.32
29383;BME280;16365;51.598;7.668;2023-01-25T08:48:59;102788.00;;;7.22;48.55
29383;BME280;16365;51.598;7.668;2023-01-25T08:51:26;102781.38;;;7.24;48.26
29383;BME280;16365;51.598;7.668;2023-01-25T08:53:52;102784.97;;;7.24;48.38
29383;BME280;16365;51.598;7.668;2023-01-25T08:56:20;102785.22;;;7.22;48.25
29383;BME280;16365;51.598;7.668;2023-01-25T08:58:47;102788.25;;;7.21;48.46
29383;BME280;16365;51.598;7.668;2023-01-25T09:01:16;102781.91;;;7.20;48.54
29383;BME280;16365;51.598;7.668;2023-01-25T09:03:43;102779.16;;;7.20;48.31
29383;BME280;16365;51.598;7.668;2023-01-25T09:06:10;102774.47;;;7.21;48.49
29383;BME280;16365;51.598;7.668;2023-01-25T09:08:37;102775.53;;;7.20;48.67
29383;BME280;16365;51.598;7.668;2023-01-25T09:11:06;102770.59;;;7.22;48.53
29383;BME280;16365;51.598;7.668;2023-01-25T09:13:32;102775.28;;;7.21;48.22
29383;BME280;16365;51.598;7.668;2023-01-25T09:16:04;102767.84;;;7.22;48.59
29383;BME280;16365;51.598;7.668;2023-01-25T09:18:31;102754.63;;;7.24;48.53
29383;BME280;16365;51.598;7.668;2023-01-25T09:20:58;102755.47;;;7.25;48.61
29383;BME280;16365;51.598;7.668;2023-01-25T09:23:26;102751.63;;;7.26;48.40
29383;BME280;16365;51.598;7.668;2023-01-25T09:25:57;102750.53;;;7.27;48.50
29383;BME280;16365;51.598;7.668;2023-01-25T09:28:24;102745.59;;;7.29;48.58
29383;BME280;16365;51.598;7.668;2023-01-25T09:30:57;102746.41;;;7.29;48.70
29383;BME280;16365;51.598;7.668;2023-01-25T09:33:44;102741.16;;;7.28;48.29
29383;BME280;16365;51.598;7.668;2023-01-25T09:36:10;102749.44;;;7.28;48.59
29383;BME280;16365;51.598;7.668;2023-01-25T09:38:37;102740.59;;;7.26;48.18
29383;BME280;16365;51.598;7.668;2023-01-25T09:41:20;102727.88;;;7.25;48.61
29383;BME280;16365;51.598;7.668;2023-01-25T09:51:44;102728.69;;;7.25;48.67
29383;BME280;16365;51.598;7.668;2023-01-25T09:54:15;102722.34;;;7.25;48.60
29383;BME280;16365;51.598;7.668;2023-01-25T09:56:43;102726.81;;;7.26;48.75
29383;BME280;16365;51.598;7.668;2023-01-25T09:59:14;102730.38;;;7.26;48.85
29383;BME280;16365;51.598;7.668;2023-01-25T10:01:47;102727.63;;;7.26;48.29
29383;BME280;16365;51.598;7.668;2023-01-25T10:04:21;102721.03;;;7.27;48.84
29383;BME280;16365;51.598;7.668;2023-01-25T10:06:53;102725.16;;;7.30;48.55
29383;BME280;16365;51.598;7.668;2023-01-25T10:09:36;102730.97;;;7.28;48.94
29383;BME280;16365;51.598;7.668;2023-01-25T10:12:14;102721.59;;;7.29;48.63
29383;BME280;16365;51.598;7.668;2023-01-25T10:14:41;102728.47;;;7.27;48.12
29383;BME280;16365;51.598;7.668;2023-01-25T10:17:12;102719.34;;;7.26;48.64
29383;BME280;16365;51.598;7.668;2023-01-25T10:22:27;102712.41;;;7.24;48.30
29383;BME280;16365;51.598;7.668;2023-01-25T10:25:00;102711.84;;;7.21;48.50
29383;BME280;16365;51.598;7.668;2023-01-25T10:27:39;102713.19;;;7.19;48.62
29383;BME280;16365;51.598;7.668;2023-01-25T10:30:27;102713.44;;;7.17;48.43
29383;BME280;16365;51.598;7.668;2023-01-25T10:32:58;102718.13;;;7.17;48.60
29383;BME280;16365;51.598;7.668;2023-01-25T10:35:29;102709.84;;;7.17;48.57
29383;BME280;16365;51.598;7.668;2023-01-25T10:38:24;102706.00;;;7.18;48.87
29383;BME280;16365;51.598;7.668;2023-01-25T10:41:15;102691.72;;;7.21;48.73
29383;BME280;16365;51.598;7.668;2023-01-25T10:43:43;102684.25;;;7.21;48.64
29383;BME280;16365;51.598;7.668;2023-01-25T10:46:22;102691.16;;;7.24;49.04
29383;BME280;16365;51.598;7.668;2023-01-25T10:48:51;102692.59;;;7.27;48.59
29383;BME280;16365;51.598;7.668;2023-01-25T10:51:27;102683.22;;;7.28;48.51
29383;BME280;16365;51.598;7.668;2023-01-25T10:54:03;102672.75;;;7.30;48.67
29383;BME280;16365;51.598;7.668;2023-01-25T10:56:34;102671.69;;;7.31;49.15
29383;BME280;16365;51.598;7.668;2023-01-25T11:01:41;102657.34;;;7.34;49.05
29383;BME280;16365;51.598;7.668;2023-01-25T11:06:53;102650.16;;;7.33;48.56
29383;BME280;16365;51.598;7.668;2023-01-25T11:12:20;102643.81;;;7.32;48.44
29383;BME280;16365;51.598;7.668;2023-01-25T11:14:38;102653.75;;;7.33;48.78
29383;BME280;16365;51.598;7.668;2023-01-25T11:17:05;102641.63;;;7.34;48.99
29383;BME280;16365;51.598;7.668;2023-01-25T11:19:46;102644.16;;;7.36;48.74
29383;BME280;16365;51.598;7.668;2023-01-25T11:24:45;102633.66;;;7.38;48.68
29383;BME280;16365;51.598;7.668;2023-01-25T11:32:30;102608.84;;;7.38;48.96
29383;BME280;16365;51.598;7.668;2023-01-25T11:34:56;102606.91;;;7.38;49.13
29383;BME280;16365;51.598;7.668;2023-01-25T11:40:03;102592.28;;;7.38;48.73
29383;BME280;16365;51.598;7.668;2023-01-25T11:45:30;102580.16;;;7.39;48.68
29383;BME280;16365;51.598;7.668;2023-01-25T11:50:35;102565.78;;;7.37;48.68
29383;BME280;16365;51.598;7.668;2023-01-25T11:56:10;102554.25;;;7.40;49.09
29383;BME280;16365;51.598;7.668;2023-01-25T11:58:55;102546.53;;;7.42;48.89
29383;BME280;16365;51.598;7.668;2023-01-25T12:01:41;102543.25;;;7.45;49.11
29383;BME280;16365;51.598;7.668;2023-01-25T12:07:00;102535.25;;;7.48;49.02
29383;BME280;16365;51.598;7.668;2023-01-25T12:09:38;102531.44;;;7.50;48.46
29383;BME280;16365;51.598;7.668;2023-01-25T12:17:21;102521.22;;;7.50;48.88
29383;BME280;16365;51.598;7.668;2023-01-25T12:27:29;102483.69;;;7.54;48.67
29383;BME280;16365;51.598;7.668;2023-01-25T12:30:10;102479.03;;;7.55;48.87
29383;BME280;16365;51.598;7.668;2023-01-25T12:32:40;102474.06;;;7.57;48.79
29383;BME280;16365;51.598;7.668;2023-01-25T12:37:35;102464.16;;;7.61;48.78
29383;BME280;16365;51.598;7.668;2023-01-25T12:40:11;102455.59;;;7.62;48.83
29383;BME280;16365;51.598;7.668;2023-01-25T12:42:43;102448.97;;;7.63;48.78
29383;BME280;16365;51.598;7.668;2023-01-25T12:45:21;102445.97;;;7.65;48.98
29383;BME280;16365;51.598;7.668;2023-01-25T12:47:50;102439.34;;;7.66;48.64
29383;BME280;16365;51.598;7.668;2023-01-25T12:50:20;102426.66;;;7.65;48.40
29383;BME280;16365;51.598;7.668;2023-01-25T12:52:50;102426.38;;;7.66;48.64
29383;BME280;16365;51.598;7.668;2023-01-25T12:55:17;102420.03;;;7.66;48.42
29383;BME280;16365;51.598;7.668;2023-01-25T13:00:34;102400.44;;;7.67;49.17
29383;BME280;16365;51.598;7.668;2023-01-25T13:03:14;102392.97;;;7.68;48.90
29383;BME280;16365;51.598;7.668;2023-01-25T13:05:45;102387.22;;;7.69;48.49
29383;BME280;16365;51.598;7.668;2023-01-25T13:11:05;102375.59;;;7.67;48.70
29383;BME280;16365;51.598;7.668;2023-01-25T13:13:32;102368.97;;;7.68;48.94
29383;BME280;16365;51.598;7.668;2023-01-25T13:16:21;102363.19;;;7.70;48.58
29383;BME280;16365;51.598;7.668;2023-01-25T13:18:46;102361.25;;;7.70;48.64
29383;BME280;16365;51.598;7.668;2023-01-25T13:21:37;102360.16;;;7.71;48.49
29383;BME280;16365;51.598;7.668;2023-01-25T13:24:11;102361.81;;;7.72;48.94
29383;BME280;16365;51.598;7.668;2023-01-25T13:26:45;102357.13;;;7.73;48.57
29383;BME280;16365;51.598;7.668;2023-01-25T13:31:58;102346.38;;;7.77;48.28
29383;BME280;16365;51.598;7.668;2023-01-25T13:37:19;102348.31;;;7.81;48.55
29383;BME280;16365;51.598;7.668;2023-01-25T13:39:47;102346.41;;;7.82;48.46
29383;BME280;16365;51.598;7.668;2023-01-25T13:42:17;102331.47;;;7.83;49.18
29383;BME280;16365;51.598;7.668;2023-01-25T13:44:49;102334.25;;;7.83;48.40
29383;BME280;16365;51.598;7.668;2023-01-25T13:47:24;102330.41;;;7.84;48.63
29383;BME280;16365;51.598;7.668;2023-01-25T13:49:56;102335.34;;;7.82;48.87
29383;BME280;16365;51.598;7.668;2023-01-25T13:52:23;102340.31;;;7.80;48.85
29383;BME280;16365;51.598;7.668;2023-01-25T13:54:55;102340.84;;;7.77;48.73
29383;BME280;16365;51.598;7.668;2023-01-25T13:57:29;102334.78;;;7.75;48.33
29383;BME280;16365;51.598;7.668;2023-01-25T14:00:06;102325.09;;;7.72;48.88
29383;BME280;16365;51.598;7.668;2023-01-25T14:02:36;102330.31;;;7.68;48.68
29383;BME280;16365;51.598;7.668;2023-01-25T14:05:04;102328.94;;;7.66;48.51
29383;BME280;16365;51.598;7.668;2023-01-25T14:07:33;102326.19;;;7.66;48.72
29383;BME280;16365;51.598;7.668;2023-01-25T14:10:05;102321.75;;;7.65;48.42
29383;BME280;16365;51.598;7.668;2023-01-25T14:12:38;102328.94;;;7.66;48.96
29383;BME280;16365;51.598;7.668;2023-01-25T14:15:24;102326.19;;;7.66;48.87
29383;BME280;16365;51.598;7.668;2023-01-25T14:20:35;102318.44;;;7.68;48.71